Cimarron, Kansas
Current Conditions -  °F | °C
As of 3:52 PM on Wednesday 22 Oct 2014 (Local Time) from KDDC Reporting Station
Clear Clear  
Wind Chill: 64°   Ceiling: Unl
Heat Index: 64°   Visibility: 10mi
Dew Point: 55°   Wind: 21mph
Humidity: 72%   Direction: 180°S
Pressure: 30.02"   Gusts: 29mph
Location:  37.81°N, 100.35°W
Report Text: KDDC 222052Z AUTO 18018G25KT 10SM CLR 18/13 A3002 RMK AO2 PK WND 17028/2006 SLP150 T01780128 55010
Loading
Personal Weather Stations






























Interactive Weather Map
Tropical Storm Tracking
New forecast layout! Learn more

10-Day Weather Forecast

Advertisements
Track Severe Weather on mobile